Time;durP1;ratioP1;P1;durP2;ratioP2;P2;SDS_P1;SDS_P2;PMS_P1;PMS_P2;Temp;Humidity;BMP_temperature;BMP_pressure;BME280_temperature;BME280_humidity;BME280_pressure;Samples;Min_cycle;Max_cycle;Signal;HPM_P1;HPM_P2
2022/10/05 00:01:28;;;;;;;5.63;2.60;;;;;;;11.31;100.00;101424.50;5052320;28;20524;-65
2022/10/05 00:04:05;;;;;;;4.77;1.70;;;;;;;11.26;100.00;101416.44;5040580;28;20457;-66
2022/10/05 00:06:32;;;;;;;10.23;2.33;;;;;;;11.26;100.00;101419.13;5053963;28;20477;-66
2022/10/05 00:09:00;;;;;;;4.53;2.10;;;;;;;11.20;100.00;101403.19;5052741;28;20470;-66
2022/10/05 00:11:27;;;;;;;7.27;2.70;;;;;;;11.14;100.00;101397.00;5051315;28;20461;-67
2022/10/05 00:13:53;;;;;;;8.43;3.27;;;;;;;11.08;99.59;101411.72;5053721;28;20520;-66
2022/10/05 00:16:21;;;;;;;6.83;2.73;;;;;;;11.03;99.75;101422.59;5053908;28;20458;-67
2022/10/05 00:18:49;;;;;;;5.30;2.00;;;;;;;11.04;100.00;101413.38;5054659;28;20493;-67
2022/10/05 00:21:23;;;;;;;5.93;2.40;;;;;;;10.98;100.00;101412.59;5054048;28;20434;-67
2022/10/05 00:23:50;;;;;;;5.60;2.47;;;;;;;11.03;100.00;101406.34;5054532;28;20458;-67
2022/10/05 00:26:21;;;;;;;4.17;1.80;;;;;;;11.00;100.00;101415.03;5055284;28;21063;-66
2022/10/05 00:28:48;;;;;;;4.17;1.73;;;;;;;11.05;100.00;101420.41;5034660;28;20431;-67
2022/10/05 00:31:17;;;;;;;10.60;2.97;;;;;;;11.06;100.00;101405.75;5049993;28;20481;-67
2022/10/05 00:33:44;;;;;;;14.27;2.47;;;;;;;11.05;100.00;101410.34;5054104;28;20508;-67
2022/10/05 00:36:11;;;;;;;5.43;2.00;;;;;;;11.10;100.00;101406.78;5053873;28;20472;-69
2022/10/05 00:38:40;;;;;;;6.67;1.93;;;;;;;11.05;100.00;101398.72;5055343;28;20970;-67
2022/10/05 00:41:11;;;;;;;10.87;2.20;;;;;;;11.06;100.00;101384.06;5054363;28;20448;-67
2022/10/05 00:43:53;;;;;;;10.30;2.57;;;;;;;10.96;100.00;101390.38;5052917;28;20485;-67
2022/10/05 00:46:25;;;;;;;6.77;2.57;;;;;;;10.95;100.00;101387.97;5050224;28;21058;-67
2022/10/05 00:49:03;;;;;;;5.60;1.90;;;;;;;10.96;100.00;101395.00;5039332;28;20457;-67
2022/10/05 00:51:31;;;;;;;6.10;2.30;;;;;;;10.95;100.00;101385.25;5054383;28;20441;-68
2022/10/05 00:54:17;;;;;;;5.87;2.20;;;;;;;10.98;100.00;101381.94;5058913;28;20471;-68
2022/10/05 00:57:09;;;;;;;5.50;2.30;;;;;;;10.97;100.00;101374.91;5074028;28;20417;-67
2022/10/05 00:59:45;;;;;;;8.17;2.50;;;;;;;10.94;100.00;101372.78;5072639;28;20891;-69
2022/10/05 01:02:15;;;;;;;8.70;2.40;;;;;;;10.88;100.00;101382.03;5053873;28;20465;-67
2022/10/05 01:04:48;;;;;;;6.20;2.33;;;;;;;10.90;100.00;101374.44;5053948;28;20495;-70
2022/10/05 01:07:25;;;;;;;7.03;2.93;;;;;;;10.81;100.00;101382.38;5058182;28;20509;-67
2022/10/05 01:10:00;;;;;;;6.00;2.30;;;;;;;10.90;100.00;101382.59;5054154;28;20484;-68
2022/10/05 01:12:32;;;;;;;4.93;2.13;;;;;;;10.91;100.00;101376.06;5053719;28;20492;-67
2022/10/05 01:15:05;;;;;;;5.70;2.30;;;;;;;10.93;100.00;101368.44;5053824;28;20509;-67
2022/10/05 01:17:38;;;;;;;6.37;2.50;;;;;;;10.94;100.00;101365.47;5053763;28;20423;-67
2022/10/05 01:20:19;;;;;;;4.87;2.03;;;;;;;10.99;100.00;101351.88;5054586;28;20465;-69
2022/10/05 01:23:07;;;;;;;5.47;2.10;;;;;;;11.09;100.00;101350.97;5053821;28;20481;-69
2022/10/05 01:25:46;;;;;;;4.80;1.90;;;;;;;11.12;100.00;101366.66;5053151;28;20438;-67
2022/10/05 01:28:18;;;;;;;5.67;2.30;;;;;;;11.17;100.00;101360.38;5051096;28;20454;-68
2022/10/05 01:30:54;;;;;;;9.60;2.70;;;;;;;11.19;100.00;101361.69;5052977;28;20454;-68
2022/10/05 01:33:28;;;;;;;5.60;1.80;;;;;;;11.24;100.00;101363.56;5052205;28;20496;-68
2022/10/05 01:36:06;;;;;;;6.67;2.70;;;;;;;11.15;100.00;101357.94;5051492;28;20453;-67
2022/10/05 01:38:43;;;;;;;5.27;2.13;;;;;;;11.16;100.00;101359.59;5050693;28;20458;-69
2022/10/05 01:41:22;;;;;;;9.50;2.00;;;;;;;11.16;100.00;101354.16;5047793;28;20466;-68
2022/10/05 01:43:57;;;;;;;5.50;2.30;;;;;;;11.15;100.00;101360.66;5052019;28;20461;-67
2022/10/05 01:46:33;;;;;;;5.27;1.70;;;;;;;11.11;100.00;101346.03;5052077;28;20474;-67
2022/10/05 01:49:17;;;;;;;6.70;2.70;;;;;;;11.09;100.00;101356.38;5055027;28;20514;-68
2022/10/05 01:51:52;;;;;;;5.93;2.13;;;;;;;10.97;100.00;101364.06;5057822;28;22066;-67
2022/10/05 01:54:28;;;;;;;8.77;2.80;;;;;;;10.91;100.00;101365.22;5053306;28;20433;-67
2022/10/05 01:57:06;;;;;;;4.07;1.50;;;;;;;10.81;100.00;101372.34;5051281;28;20450;-67
2022/10/05 01:59:47;;;;;;;6.00;2.77;;;;;;;10.74;100.00;101377.25;5053581;28;20508;-68
2022/10/05 02:02:17;;;;;;;6.03;1.87;;;;;;;10.67;100.00;101382.22;5054750;28;20482;-68
2022/10/05 02:04:48;;;;;;;4.60;1.90;;;;;;;10.66;100.00;101383.28;5050518;28;20481;-68
2022/10/05 02:07:21;;;;;;;5.57;2.03;;;;;;;10.64;100.00;101384.66;5051801;28;20504;-67
2022/10/05 02:09:54;;;;;;;5.77;2.20;;;;;;;10.63;100.00;101373.03;5051121;28;20884;-67
2022/10/05 02:12:24;;;;;;;4.80;1.80;;;;;;;10.54;100.00;101377.44;5055304;28;20490;-67
2022/10/05 02:15:00;;;;;;;4.20;1.67;;;;;;;10.54;100.00;101378.22;5056565;28;20454;-68
2022/10/05 02:17:36;;;;;;;6.27;2.50;;;;;;;10.57;100.00;101376.84;5054517;28;20459;-69
2022/10/05 02:20:07;;;;;;;5.40;2.47;;;;;;;10.50;100.00;101382.59;5056086;28;20458;-67
2022/10/05 02:22:38;;;;;;;4.70;1.97;;;;;;;10.46;100.00;101380.72;5054503;28;20536;-67
2022/10/05 02:25:09;;;;;;;5.80;2.07;;;;;;;10.44;100.00;101372.84;5055766;28;20851;-72
2022/10/05 02:27:42;;;;;;;4.60;2.00;;;;;;;10.43;100.00;101375.84;5056075;28;20465;-71
2022/10/05 02:30:11;;;;;;;5.80;2.10;;;;;;;10.36;100.00;101378.88;5053522;28;20461;-71
2022/10/05 02:32:43;;;;;;;7.23;1.73;;;;;;;10.29;100.00;101383.78;5055513;28;20494;-68
2022/10/05 02:35:15;;;;;;;7.27;1.70;;;;;;;10.27;100.00;101378.66;5055018;28;20516;-68
2022/10/05 02:37:53;;;;;;;6.17;2.27;;;;;;;10.23;100.00;101380.28;5055532;28;20508;-68
2022/10/05 02:40:29;;;;;;;5.40;2.13;;;;;;;10.18;100.00;101377.59;5054796;28;20453;-67
2022/10/05 02:43:03;;;;;;;7.03;2.30;;;;;;;10.20;100.00;101380.03;5036371;28;20463;-68
2022/10/05 02:45:39;;;;;;;8.00;2.30;;;;;;;10.13;100.00;101372.19;5050727;28;20469;-67
2022/10/05 02:48:12;;;;;;;4.63;2.27;;;;;;;10.03;100.00;101372.25;5056425;28;20462;-67
2022/10/05 02:50:47;;;;;;;6.83;2.07;;;;;;;9.88;100.00;101359.59;5053209;28;20452;-69
2022/10/05 02:53:23;;;;;;;6.10;2.70;;;;;;;9.72;100.00;101361.53;5056448;28;20473;-68
2022/10/05 02:55:59;;;;;;;5.73;2.00;;;;;;;9.74;100.00;101358.56;5056433;28;20422;-68
2022/10/05 02:58:29;;;;;;;4.97;2.30;;;;;;;9.71;99.85;101357.22;5056256;28;20445;-68
2022/10/05 03:01:03;;;;;;;4.93;2.10;;;;;;;9.69;100.00;101355.88;5056864;28;20468;-67
2022/10/05 03:03:35;;;;;;;7.60;1.70;;;;;;;9.71;100.00;101359.13;5056218;28;20468;-67
2022/10/05 03:06:05;;;;;;;6.30;2.00;;;;;;;9.68;100.00;101355.06;5055525;28;20460;-68
2022/10/05 03:08:38;;;;;;;4.60;2.00;;;;;;;9.68;100.00;101355.06;5056109;28;20450;-67
2022/10/05 03:11:11;;;;;;;6.40;1.63;;;;;;;9.62;100.00;101350.75;5056794;28;20858;-68
2022/10/05 03:13:47;;;;;;;4.30;1.73;;;;;;;9.65;100.00;101350.22;5053102;28;20580;-67
2022/10/05 03:16:37;;;;;;;4.47;1.57;;;;;;;9.69;100.00;101345.03;5055900;28;20819;-67
2022/10/05 03:19:17;;;;;;;4.47;1.60;;;;;;;9.73;100.00;101336.09;5054558;28;20431;-69
2022/10/05 03:21:53;;;;;;;5.33;1.87;;;;;;;9.78;100.00;101337.97;5066704;28;20891;-68
2022/10/05 03:24:41;;;;;;;6.97;2.60;;;;;;;9.77;100.00;101336.38;5055940;28;20429;-67
2022/10/05 03:27:17;;;;;;;5.63;1.90;;;;;;;9.81;100.00;101322.00;5055603;28;20474;-68
2022/10/05 03:29:51;;;;;;;4.97;1.80;;;;;;;9.86;100.00;101329.28;5055707;28;20959;-69
2022/10/05 03:32:26;;;;;;;8.73;1.93;;;;;;;9.88;100.00;101321.72;5055353;28;20523;-68
2022/10/05 03:35:00;;;;;;;5.23;2.00;;;;;;;9.91;100.00;101318.44;5054821;28;20449;-67
2022/10/05 03:37:34;;;;;;;4.80;1.63;;;;;;;9.91;100.00;101313.03;5055023;28;20451;-67
2022/10/05 03:40:09;;;;;;;6.67;2.63;;;;;;;9.84;100.00;101313.34;5055386;28;20454;-67
2022/10/05 03:42:46;;;;;;;6.80;2.47;;;;;;;9.85;100.00;101309.53;5055338;28;20524;-67
2022/10/05 03:45:25;;;;;;;5.87;2.37;;;;;;;9.86;100.00;101310.34;5053965;28;20962;-68
2022/10/05 03:48:00;;;;;;;5.70;2.50;;;;;;;9.85;100.00;101306.03;5055371;28;20545;-67
2022/10/05 03:50:40;;;;;;;5.87;2.20;;;;;;;9.86;100.00;101308.44;5053337;28;21052;-67
2022/10/05 03:53:15;;;;;;;10.67;3.20;;;;;;;9.88;100.00;101293.84;5054289;28;20523;-68
2022/10/05 03:55:47;;;;;;;4.57;2.13;;;;;;;9.95;100.00;101299.75;5054863;28;20434;-69
2022/10/05 03:58:17;;;;;;;5.07;2.30;;;;;;;10.08;100.00;101301.84;5055409;28;20450;-68
2022/10/05 04:00:47;;;;;;;6.60;2.20;;;;;;;10.15;100.00;101299.66;5054788;28;20528;-69
2022/10/05 04:03:23;;;;;;;5.63;2.40;;;;;;;10.30;100.00;101304.16;5055282;28;20470;-68
2022/10/05 04:05:53;;;;;;;4.50;2.00;;;;;;;10.34;100.00;101297.09;5063458;28;20483;-68
2022/10/05 04:08:26;;;;;;;5.60;2.50;;;;;;;10.45;100.00;101292.44;5057805;28;20482;-68
2022/10/05 04:10:56;;;;;;;6.80;2.10;;;;;;;10.51;100.00;101286.69;5054990;28;20442;-68
2022/10/05 04:13:29;;;;;;;4.63;2.13;;;;;;;10.54;100.00;101285.31;5054579;28;20466;-68
2022/10/05 04:16:00;;;;;;;4.63;1.90;;;;;;;10.59;100.00;101287.97;5055236;28;20461;-68
2022/10/05 04:18:32;;;;;;;6.90;2.40;;;;;;;10.60;100.00;101289.59;5055679;28;20460;-68
2022/10/05 04:21:05;;;;;;;9.47;2.67;;;;;;;10.63;100.00;101299.88;5055444;28;20454;-68
2022/10/05 04:23:40;;;;;;;4.70;1.77;;;;;;;10.69;100.00;101300.63;5054401;28;20486;-68
2022/10/05 04:26:11;;;;;;;7.37;2.50;;;;;;;10.72;100.00;101298.16;5054736;28;20518;-68
2022/10/05 04:28:48;;;;;;;18.67;3.13;;;;;;;10.76;100.00;101296.50;5054190;28;20486;-69
2022/10/05 04:31:23;;;;;;;7.40;2.60;;;;;;;10.82;100.00;101289.94;5034666;28;20431;-68
2022/10/05 04:33:59;;;;;;;5.43;2.23;;;;;;;10.86;100.00;101301.84;5042555;28;20523;-68
2022/10/05 04:36:36;;;;;;;7.67;2.20;;;;;;;10.87;100.00;101297.22;5054550;28;20484;-68
2022/10/05 04:39:14;;;;;;;10.20;2.33;;;;;;;10.84;100.00;101304.00;5054831;28;20453;-68
2022/10/05 04:42:01;;;;;;;4.23;1.47;;;;;;;10.81;100.00;101304.59;5054068;28;20484;-68
2022/10/05 04:44:48;;;;;;;7.40;2.90;;;;;;;10.77;100.00;101308.97;5052917;28;20519;-68
2022/10/05 04:47:24;;;;;;;11.87;2.10;;;;;;;10.71;100.00;101312.78;5050015;28;20469;-69
2022/10/05 04:50:23;;;;;;;9.93;2.20;;;;;;;10.65;100.00;101303.09;5054049;28;20826;-69
2022/10/05 04:52:57;;;;;;;7.40;2.60;;;;;;;10.69;100.00;101301.44;5052904;28;20895;-68
2022/10/05 04:55:30;;;;;;;4.93;1.70;;;;;;;10.71;100.00;101298.44;5054390;28;20458;-68
2022/10/05 04:58:06;;;;;;;5.47;2.73;;;;;;;10.71;100.00;101296.53;5052908;28;20455;-68
2022/10/05 05:00:48;;;;;;;10.00;3.27;;;;;;;10.76;100.00;101290.28;5051490;28;20803;-68
2022/10/05 05:03:44;;;;;;;5.50;2.07;;;;;;;10.76;100.00;101287.56;5042035;28;20521;-68
2022/10/05 05:06:21;;;;;;;4.77;2.03;;;;;;;10.82;100.00;101292.66;5052445;28;20484;-68
2022/10/05 05:09:13;;;;;;;7.60;2.77;;;;;;;10.85;100.00;101294.81;5054354;28;20473;-69
2022/10/05 05:11:50;;;;;;;6.03;2.27;;;;;;;10.93;100.00;101300.69;5041210;28;20519;-72
2022/10/05 05:14:34;;;;;;;6.30;2.07;;;;;;;10.96;100.00;101300.13;5053777;28;20540;-76
2022/10/05 05:17:14;;;;;;;4.70;2.00;;;;;;;10.92;100.00;101304.50;5053574;28;20488;-72
2022/10/05 05:19:51;;;;;;;7.23;3.10;;;;;;;10.85;100.00;101300.22;5054056;28;20462;-70
2022/10/05 05:22:28;;;;;;;6.30;1.90;;;;;;;10.90;100.00;101299.38;5050712;28;20570;-69
2022/10/05 05:25:19;;;;;;;5.53;2.10;;;;;;;10.89;100.00;101288.78;5050668;28;20493;-69
2022/10/05 05:27:49;;;;;;;11.53;3.43;;;;;;;10.82;100.00;101289.13;5056415;28;20470;-69
2022/10/05 05:30:24;;;;;;;5.90;1.77;;;;;;;10.81;100.00;101284.81;5052328;28;20472;-69
2022/10/05 05:33:06;;;;;;;8.00;2.33;;;;;;;10.79;99.93;101276.16;5078805;22;20794;-71
2022/10/05 05:36:25;;;;;;;5.93;2.17;;;;;;;10.76;100.00;101264.00;5061521;28;20461;-71
2022/10/05 05:39:19;;;;;;;6.30;2.63;;;;;;;10.84;100.00;101266.06;5071225;28;20830;-71
2022/10/05 05:41:58;;;;;;;4.43;1.67;;;;;;;10.93;100.00;101260.81;5073294;28;20445;-71
2022/10/05 05:44:27;;;;;;;6.93;2.40;;;;;;;11.00;100.00;101265.94;5070954;28;20485;-71
2022/10/05 05:46:59;;;;;;;5.27;2.10;;;;;;;11.03;100.00;101276.22;5071652;28;20461;-72
2022/10/05 05:49:34;;;;;;;5.43;2.23;;;;;;;11.10;100.00;101279.38;5070817;28;20530;-72
2022/10/05 05:52:09;;;;;;;7.47;2.30;;;;;;;11.16;100.00;101277.44;5072172;28;20494;-72
2022/10/05 05:54:42;;;;;;;10.30;2.57;;;;;;;11.17;100.00;101270.91;5070340;28;20477;-71
2022/10/05 05:57:15;;;;;;;5.53;2.00;;;;;;;11.19;100.00;101272.22;5071459;28;20460;-71
2022/10/05 05:59:56;;;;;;;7.30;2.63;;;;;;;11.23;100.00;101273.25;5070134;28;20469;-72
2022/10/05 06:02:28;;;;;;;6.70;2.37;;;;;;;11.28;100.00;101272.38;5068961;28;20484;-75
2022/10/05 06:05:02;;;;;;;16.03;2.27;;;;;;;11.25;100.00;101273.78;5071892;28;20453;-72
2022/10/05 06:07:30;;;;;;;6.27;2.27;;;;;;;11.29;100.00;101276.75;5071371;28;20465;-71
2022/10/05 06:10:05;;;;;;;5.50;2.30;;;;;;;11.33;100.00;101284.00;5073063;28;20445;-70
2022/10/05 06:12:34;;;;;;;8.30;2.77;;;;;;;11.40;100.00;101280.13;5067353;28;20452;-70
2022/10/05 06:15:11;;;;;;;6.47;2.67;;;;;;;11.42;100.00;101286.06;5069524;28;20457;-70
2022/10/05 06:17:43;;;;;;;5.10;2.10;;;;;;;11.52;100.00;101281.34;5070663;28;20453;-69
2022/10/05 06:20:16;;;;;;;5.77;2.30;;;;;;;11.62;100.00;101275.78;5071984;28;20463;-71
2022/10/05 06:22:45;;;;;;;9.47;3.47;;;;;;;11.70;100.00;101290.63;5072907;28;20426;-72
2022/10/05 06:25:27;;;;;;;6.23;2.07;;;;;;;11.75;100.00;101293.25;5072068;28;20462;-71
2022/10/05 06:28:02;;;;;;;5.40;1.83;;;;;;;11.80;100.00;101284.25;5072846;28;20491;-71
2022/10/05 06:30:37;;;;;;;6.07;2.27;;;;;;;11.91;99.72;101291.19;5072545;28;20902;-72
2022/10/05 06:33:17;;;;;;;6.47;2.00;;;;;;;12.01;99.70;101295.66;5070710;28;20489;-71
2022/10/05 06:35:57;;;;;;;7.80;2.40;;;;;;;12.06;100.00;101309.16;5072777;28;20425;-72
2022/10/05 06:38:59;;;;;;;4.60;1.90;;;;;;;12.12;100.00;101299.84;5071081;28;20464;-71
2022/10/05 06:41:41;;;;;;;5.80;2.57;;;;;;;12.14;100.00;101299.56;5072755;28;20421;-72
2022/10/05 06:44:13;;;;;;;9.27;2.70;;;;;;;12.21;99.77;101298.06;5072348;28;21047;-72
2022/10/05 06:46:48;;;;;;;5.90;2.43;;;;;;;12.31;98.94;101295.22;5071490;28;20485;-72
2022/10/05 06:49:20;;;;;;;7.87;2.30;;;;;;;12.38;98.45;101295.63;5072645;28;20523;-72
2022/10/05 06:51:57;;;;;;;5.63;2.40;;;;;;;12.42;97.19;101304.00;5071276;28;20461;-73
2022/10/05 06:54:56;;;;;;;5.67;2.30;;;;;;;12.46;96.68;101290.66;5071014;28;20499;-72
2022/10/05 06:57:50;;;;;;;5.80;1.83;;;;;;;12.48;97.18;101296.59;5074726;28;20515;-72
2022/10/05 07:00:20;;;;;;;4.13;1.60;;;;;;;12.50;97.29;101295.19;5074371;28;20479;-72
2022/10/05 07:02:53;;;;;;;8.50;2.57;;;;;;;12.55;96.75;101300.53;5076164;28;20457;-71
2022/10/05 07:05:39;;;;;;;8.30;3.27;;;;;;;12.61;96.15;101304.78;5074447;28;20488;-72
2022/10/05 07:08:11;;;;;;;4.80;2.00;;;;;;;12.67;95.26;101307.44;5075863;28;21009;-72
2022/10/05 07:10:50;;;;;;;7.37;2.30;;;;;;;12.69;94.75;101311.47;5073702;28;20461;-71
2022/10/05 07:13:39;;;;;;;6.17;2.53;;;;;;;12.73;94.37;101308.97;5075397;28;20476;-71
2022/10/05 07:16:15;;;;;;;5.20;2.20;;;;;;;12.78;94.68;101303.44;5055809;28;20471;-71
2022/10/05 07:18:55;;;;;;;6.03;2.03;;;;;;;12.84;94.98;101300.34;5055980;28;20476;-71
2022/10/05 07:21:31;;;;;;;4.80;2.20;;;;;;;12.93;94.35;101307.81;5063005;28;20819;-71
2022/10/05 07:24:08;;;;;;;5.30;1.63;;;;;;;13.02;94.66;101303.31;5074640;28;20485;-70
2022/10/05 07:26:40;;;;;;;5.80;1.93;;;;;;;13.11;94.49;101318.63;5075959;28;20495;-71
2022/10/05 07:29:23;;;;;;;10.20;2.63;;;;;;;13.20;93.82;101310.59;5074302;28;20477;-71
2022/10/05 07:32:01;;;;;;;6.70;2.43;;;;;;;13.31;93.94;101309.28;5074631;28;20489;-71
2022/10/05 07:34:36;;;;;;;8.67;2.30;;;;;;;13.38;94.43;101323.31;5069453;28;20534;-71
2022/10/05 07:40:03;;;;;;;4.60;1.87;;;;;;;13.64;92.90;101325.53;5069331;28;20456;-70
2022/10/05 07:42:40;;;;;;;6.50;2.53;;;;;;;13.76;92.77;101322.28;5072758;28;20957;-71
2022/10/05 07:45:18;;;;;;;5.40;2.33;;;;;;;13.84;90.14;101316.94;5057491;28;20460;-72
2022/10/05 07:47:51;;;;;;;4.80;1.40;;;;;;;13.94;89.56;101320.56;5072532;28;20478;-73
2022/10/05 07:50:24;;;;;;;9.80;2.50;;;;;;;14.00;90.96;101325.59;5074139;28;20515;-71
2022/10/05 07:52:56;;;;;;;10.13;2.60;;;;;;;14.11;90.64;101320.72;5072300;28;20476;-72
2022/10/05 07:55:25;;;;;;;4.10;1.60;;;;;;;14.23;89.75;101331.09;5071715;28;20453;-71
2022/10/05 07:58:02;;;;;;;5.60;2.50;;;;;;;14.33;89.17;101334.38;5075102;28;20437;-71
2022/10/05 08:00:44;;;;;;;6.27;2.17;;;;;;;14.45;87.59;101330.31;5073729;28;20875;-71
2022/10/05 08:03:17;;;;;;;5.77;1.63;;;;;;;14.44;88.69;101326.00;5075028;28;20473;-71
2022/10/05 08:05:46;;;;;;;5.60;2.40;;;;;;;14.60;87.62;101310.88;5073922;28;20958;-71
2022/10/05 08:08:21;;;;;;;5.33;1.90;;;;;;;14.70;86.37;101307.09;5074087;28;21025;-71
2022/10/05 08:10:54;;;;;;;7.40;2.70;;;;;;;14.83;85.75;101306.22;5072079;28;20457;-70
2022/10/05 08:13:28;;;;;;;7.40;2.20;;;;;;;14.89;85.11;101303.06;5054742;28;20543;-71
2022/10/05 08:16:00;;;;;;;6.53;2.00;;;;;;;14.96;85.65;101302.59;5071219;28;20465;-76
2022/10/05 08:18:41;;;;;;;9.83;2.50;;;;;;;15.04;85.22;101298.31;5074762;28;20442;-73
2022/10/05 08:21:10;;;;;;;4.10;1.67;;;;;;;15.15;85.51;101288.75;5070745;28;20459;-71
2022/10/05 08:23:43;;;;;;;5.07;1.93;;;;;;;15.18;83.76;101290.84;5072463;28;20477;-71
2022/10/05 08:26:17;;;;;;;12.73;1.40;;;;;;;15.19;82.23;101287.00;5069191;28;20464;-70
2022/10/05 08:28:51;;;;;;;7.37;2.17;;;;;;;15.20;83.05;101280.41;5070581;28;20532;-71
2022/10/05 08:31:24;;;;;;;9.33;1.87;;;;;;;15.27;82.36;101282.69;5073075;28;20425;-71
2022/10/05 08:33:57;;;;;;;3.80;1.70;;;;;;;15.33;83.17;101278.72;5074294;28;20547;-71
2022/10/05 08:36:32;;;;;;;4.13;1.50;;;;;;;15.40;82.01;101273.56;5074030;28;20456;-71
2022/10/05 08:39:05;;;;;;;4.80;1.70;;;;;;;15.47;81.65;101275.84;5074016;28;20467;-71
2022/10/05 08:41:56;;;;;;;4.60;1.80;;;;;;;15.55;82.08;101269.63;5074331;28;20454;-71
2022/10/05 08:44:57;;;;;;;4.70;1.60;;;;;;;15.68;81.90;101271.44;5074197;28;20468;-71
2022/10/05 08:47:48;;;;;;;4.83;1.43;;;;;;;15.83;81.74;101260.06;5074273;28;20429;-71
2022/10/05 08:50:31;;;;;;;6.50;1.77;;;;;;;15.93;80.86;101258.13;5073824;28;20425;-71
2022/10/05 08:53:14;;;;;;;5.33;1.87;;;;;;;16.04;79.41;101253.97;5074015;28;20479;-71
2022/10/05 08:55:50;;;;;;;6.07;1.87;;;;;;;16.10;79.62;101255.41;5073719;28;20926;-71
2022/10/05 08:58:43;;;;;;;4.07;1.53;;;;;;;16.22;79.32;101250.09;5074417;28;20425;-71
2022/10/05 09:01:19;;;;;;;10.83;2.20;;;;;;;16.28;78.26;101250.72;5073576;28;20906;-71
2022/10/05 09:04:05;;;;;;;5.37;2.00;;;;;;;16.39;78.72;101258.28;5073496;28;20456;-71
2022/10/05 09:07:12;;;;;;;7.43;2.10;;;;;;;16.44;78.24;101257.31;5073954;28;20421;-71
2022/10/05 09:10:11;;;;;;;4.03;1.80;;;;;;;16.54;78.33;101247.97;5073434;28;20514;-71
2022/10/05 09:13:17;;;;;;;5.93;2.10;;;;;;;16.50;78.49;101257.94;5073392;28;20915;-71
2022/10/05 09:16:04;;;;;;;5.07;1.67;;;;;;;16.51;78.55;101268.56;5064216;28;20457;-71
2022/10/05 09:18:53;;;;;;;14.07;2.43;;;;;;;16.65;79.20;101250.03;5073007;28;20475;-71
2022/10/05 09:21:38;;;;;;;4.37;1.40;;;;;;;16.64;78.71;101259.38;5073497;28;20451;-71
2022/10/05 09:24:20;;;;;;;4.73;1.50;;;;;;;16.68;78.26;101251.31;5073181;28;20970;-71
2022/10/05 09:27:01;;;;;;;5.70;2.00;;;;;;;16.73;78.58;101244.88;5073515;28;20425;-71
2022/10/05 09:29:53;;;;;;;4.50;1.93;;;;;;;16.82;78.60;101249.22;5073483;28;20465;-71
2022/10/05 09:32:39;;;;;;;8.20;1.83;;;;;;;16.86;77.20;101246.63;5073151;28;20426;-71
2022/10/05 09:35:21;;;;;;;7.73;1.70;;;;;;;16.92;77.60;101241.78;5073425;28;20766;-71
2022/10/05 09:38:19;;;;;;;7.00;2.00;;;;;;;16.94;77.52;101242.25;5073451;28;20944;-70
2022/10/05 09:41:38;;;;;;;7.57;1.93;;;;;;;17.02;77.46;101230.47;5068665;28;20518;-70
2022/10/05 09:44:23;;;;;;;4.00;1.43;;;;;;;17.16;77.73;101242.00;5073153;28;20461;-71
2022/10/05 09:47:23;;;;;;;4.00;1.40;;;;;;;17.29;77.35;101235.47;5073571;28;20487;-71
2022/10/05 09:50:06;;;;;;;4.33;1.30;;;;;;;17.36;76.48;101235.78;5072404;28;21006;-71
2022/10/05 09:52:56;;;;;;;4.90;1.40;;;;;;;17.44;77.85;101230.56;5073139;28;20444;-71
2022/10/05 09:55:47;;;;;;;5.77;1.53;;;;;;;17.41;75.83;101226.56;5073199;28;20429;-71
2022/10/05 09:58:43;;;;;;;4.40;2.10;;;;;;;17.37;75.08;101223.69;5073252;28;20471;-71
2022/10/05 10:01:26;;;;;;;4.47;1.87;;;;;;;17.29;74.72;101216.31;5072897;28;20433;-71
2022/10/05 10:04:08;;;;;;;4.50;1.37;;;;;;;17.23;75.28;101214.91;5073056;28;20460;-71
2022/10/05 10:07:20;;;;;;;11.03;1.63;;;;;;;17.25;75.25;101212.63;5073144;28;20461;-71
2022/10/05 10:10:21;;;;;;;5.13;2.00;;;;;;;17.25;74.28;101212.63;5073558;28;20473;-71
2022/10/05 10:13:15;;;;;;;4.93;1.80;;;;;;;17.24;74.62;101213.78;5072958;28;20476;-71
2022/10/05 10:16:04;;;;;;;6.40;2.07;;;;;;;17.23;74.86;101216.84;5073118;28;20426;-71
2022/10/05 10:18:49;;;;;;;4.83;1.70;;;;;;;17.33;75.08;101220.00;5073184;28;20421;-71
2022/10/05 10:21:51;;;;;;;6.20;2.17;;;;;;;17.57;76.30;101232.25;5072891;28;20899;-71
2022/10/05 10:24:31;;;;;;;7.30;1.73;;;;;;;17.77;75.96;101238.94;5072583;28;20463;-71
2022/10/05 10:27:11;;;;;;;4.10;1.53;;;;;;;17.95;75.33;101245.88;5072998;28;20439;-71
2022/10/05 10:29:50;;;;;;;3.70;1.33;;;;;;;18.09;75.29;101240.13;5073269;28;20472;-71
2022/10/05 10:32:39;;;;;;;4.10;1.70;;;;;;;18.20;75.41;101246.81;5076967;28;20494;-71
2022/10/05 10:35:22;;;;;;;4.40;1.87;;;;;;;18.32;74.96;101244.09;5076882;28;20425;-71
2022/10/05 10:38:23;;;;;;;4.33;1.63;;;;;;;18.32;74.12;101243.31;5077294;28;20429;-70
2022/10/05 10:41:11;;;;;;;7.73;1.83;;;;;;;18.32;74.93;101238.63;5056597;28;20982;-71
2022/10/05 10:43:55;;;;;;;5.17;1.77;;;;;;;18.35;73.66;101237.94;5076560;28;20461;-71
2022/10/05 10:46:38;;;;;;;5.73;1.73;;;;;;;18.45;73.78;101236.72;5077044;28;20440;-71
2022/10/05 10:49:33;;;;;;;6.30;2.00;;;;;;;18.52;73.75;101226.00;5076444;28;20481;-71
2022/10/05 10:52:11;;;;;;;5.40;1.20;;;;;;;18.57;74.11;101233.22;5076404;28;20464;-71
2022/10/05 10:55:07;;;;;;;4.47;1.60;;;;;;;18.64;73.38;101226.03;5076401;28;20547;-71
2022/10/05 10:58:03;;;;;;;6.23;1.87;;;;;;;18.67;73.43;101224.53;5076666;28;20528;-71
2022/10/05 11:00:54;;;;;;;5.47;2.00;;;;;;;18.65;73.05;101224.09;5076985;28;20437;-71
2022/10/05 11:03:53;;;;;;;4.27;1.40;;;;;;;19.00;74.21;101224.50;5077079;28;20457;-71
2022/10/05 11:06:50;;;;;;;5.90;2.00;;;;;;;19.93;71.38;101221.09;5076479;28;20425;-71
2022/10/05 11:09:39;;;;;;;4.80;1.90;;;;;;;21.25;64.66;101219.06;5076337;28;20576;-71
2022/10/05 11:12:36;;;;;;;4.03;1.50;;;;;;;22.41;60.45;101214.47;5075939;28;20509;-71
2022/10/05 11:15:31;;;;;;;4.70;1.67;;;;;;;22.76;56.09;101212.72;5053192;28;20442;-71
2022/10/05 11:18:20;;;;;;;6.80;1.80;;;;;;;22.84;53.74;101212.47;5075943;28;20982;-71
2022/10/05 11:21:23;;;;;;;11.90;1.80;;;;;;;22.68;54.81;101211.78;5076420;28;20417;-71
2022/10/05 11:24:22;;;;;;;5.30;2.20;;;;;;;23.80;55.58;101217.88;5076071;28;20467;-71
2022/10/05 11:27:27;;;;;;;6.10;1.73;;;;;;;23.79;51.31;101219.84;5076021;28;20429;-72
2022/10/05 11:30:21;;;;;;;5.20;2.07;;;;;;;22.69;53.19;101212.59;5025273;28;21025;-72
2022/10/05 11:33:30;;;;;;;6.30;2.00;;;;;;;21.87;56.60;101207.09;5075657;28;20481;-71
2022/10/05 11:36:28;;;;;;;4.47;1.40;;;;;;;21.59;58.85;101203.72;5070403;28;20471;-71
2022/10/05 11:39:18;;;;;;;4.73;1.83;;;;;;;21.70;59.69;101198.44;5068123;28;20813;-71
2022/10/05 11:42:12;;;;;;;5.23;1.60;;;;;;;21.38;59.54;101195.75;5074652;28;20473;-71
2022/10/05 11:45:20;;;;;;;4.30;1.67;;;;;;;21.03;62.39;101196.53;5075379;28;20465;-71
2022/10/05 11:48:06;;;;;;;5.30;2.00;;;;;;;20.60;63.73;101183.66;5075490;28;20426;-71
2022/10/05 11:50:37;;;;;;;5.23;1.63;;;;;;;20.24;66.56;101176.38;5075411;28;20553;-71
2022/10/05 11:53:13;;;;;;;4.90;2.13;;;;;;;20.16;65.00;101169.88;5075318;28;20483;-71
2022/10/05 11:55:45;;;;;;;9.53;2.73;;;;;;;20.53;66.65;101172.44;5075620;28;20425;-71
2022/10/05 11:58:20;;;;;;;5.60;2.27;;;;;;;21.45;64.74;101176.63;5074997;28;20414;-71
2022/10/05 12:00:53;;;;;;;10.87;2.60;;;;;;;22.67;62.02;101169.56;5074927;28;20906;-71
2022/10/05 12:03:32;;;;;;;8.27;2.47;;;;;;;24.49;57.74;101175.97;5074959;28;20843;-71
2022/10/05 12:06:15;;;;;;;3.93;1.13;;;;;;;25.47;50.20;101177.09;5074938;28;20433;-71
2022/10/05 12:08:55;;;;;;;3.90;1.40;;;;;;;26.25;50.09;101173.00;5074690;28;20425;-71
2022/10/05 12:11:52;;;;;;;4.20;1.57;;;;;;;26.91;45.78;101174.25;5075151;28;20433;-69
2022/10/05 12:14:31;;;;;;;3.73;1.37;;;;;;;27.37;46.11;101172.63;5074371;28;20469;-72
2022/10/05 12:17:12;;;;;;;4.17;1.30;;;;;;;27.03;45.02;101172.28;5075019;28;20487;-72
2022/10/05 12:19:45;;;;;;;6.07;2.60;;;;;;;27.27;46.59;101165.91;5074892;28;20472;-71
2022/10/05 12:22:21;;;;;;;3.50;1.33;;;;;;;27.94;45.64;101164.09;5074656;28;20434;-69